New Britain, Connecticut
Current Conditions -  °F | °C
As of 6:53 AM on Tuesday 27 Jan 2015 (Local Time) from KHFD Reporting Station
Light Snow Light Snow  
Wind Chill: -17°   Ceiling: 1100
Heat Index: -8°   Visibility: 0.5mi
Dew Point: -11°   Wind: 16mph
Humidity: 84%   Direction: 360°N
Pressure: 29.62"   Gusts: 30mph
Location:  41.67°N, 72.78°W
Report Text: KHFD 271153Z 36014G26KT 1/2SM -SN VV011 M08/M11 A2962 RMK AO2 PK WND 34030/1120 SNB47 SLP030 P0000 60005 70007 T10831106 11072 21089 56022 $
Loading
Personal Weather Stations






























Interactive Weather Map New forecast layout! Learn more

10-Day Weather Forecast

Advertisements
Track Severe Weather on mobile